Time;durP1;ratioP1;P1;durP2;ratioP2;P2;SDS_P1;SDS_P2;PMS_P1;PMS_P2;Temp;Humidity;BMP_temperature;BMP_pressure;BME280_temperature;BME280_humidity;BME280_pressure;Samples;Min_cycle;Max_cycle;Signal;HPM_P1;HPM_P2
2024/04/07 00:03:22;;;;;;;1.45;0.60;;;;;;;;;;10231616;28;20147;-75
2024/04/07 00:08:26;;;;;;;2.97;0.70;;;;;;;;;;10210792;28;20081;-74
2024/04/07 00:13:29;;;;;;;1.40;0.40;;;;;;;;;;10230426;28;20045;-74
2024/04/07 00:18:32;;;;;;;1.15;0.47;;;;;;;;;;10230404;28;20625;-75
2024/04/07 00:23:36;;;;;;;1.95;1.00;;;;;;;;;;10218309;28;20055;-75
2024/04/07 00:28:38;;;;;;;2.08;0.73;;;;;;;;;;10218600;28;20610;-74
2024/04/07 00:33:41;;;;;;;0.77;0.30;;;;;;;;;;10226975;28;20118;-75
2024/04/07 00:38:44;;;;;;;1.25;0.57;;;;;;;;;;10232375;28;20079;-75
2024/04/07 00:43:47;;;;;;;4.65;1.08;;;;;;;;;;10224855;28;20087;-75
2024/04/07 00:48:49;;;;;;;2.75;0.70;;;;;;;;;;10221653;28;20130;-74
2024/04/07 00:53:55;;;;;;;1.23;0.65;;;;;;;;;;10227593;28;20608;-74
2024/04/07 00:58:57;;;;;;;1.63;0.60;;;;;;;;;;10223914;28;20059;-74
2024/04/07 01:04:00;;;;;;;2.28;0.70;;;;;;;;;;10225696;28;20374;-74
2024/04/07 01:09:04;;;;;;;1.45;0.50;;;;;;;;;;10230997;28;20528;-74
2024/04/07 01:14:06;;;;;;;4.03;0.73;;;;;;;;;;10226939;28;20106;-74
2024/04/07 01:19:09;;;;;;;1.33;0.50;;;;;;;;;;10222290;28;20068;-74
2024/04/07 01:24:12;;;;;;;2.60;0.70;;;;;;;;;;10212260;28;20099;-74
2024/04/07 01:29:15;;;;;;;2.30;0.57;;;;;;;;;;10210937;28;20557;-74
2024/04/07 01:34:18;;;;;;;1.23;0.68;;;;;;;;;;10221820;28;20048;-74
2024/04/07 01:39:22;;;;;;;1.25;0.50;;;;;;;;;;10213478;29;20151;-74
2024/04/07 01:44:24;;;;;;;0.88;0.57;;;;;;;;;;10233544;28;20174;-74
2024/04/07 01:49:27;;;;;;;1.85;0.43;;;;;;;;;;10234199;28;20051;-74
2024/04/07 01:54:32;;;;;;;2.20;0.85;;;;;;;;;;10206604;28;20561;-74
2024/04/07 01:59:35;;;;;;;;;;;;;;;;;;10234726;28;20082;-74
2024/04/07 02:04:38;;;;;;;2.05;0.55;;;;;;;;;;10234134;28;19922;-74
2024/04/07 02:09:43;;;;;;;3.03;0.65;;;;;;;;;;10228416;28;20473;-74
2024/04/07 02:14:45;;;;;;;1.57;0.50;;;;;;;;;;10235489;28;20090;-74
2024/04/07 02:19:51;;;;;;;1.75;0.50;;;;;;;;;;10233109;28;20741;-74
2024/04/07 02:24:55;;;;;;;0.97;0.50;;;;;;;;;;10241743;28;20053;-74
2024/04/07 02:29:57;;;;;;;1.40;0.52;;;;;;;;;;10242537;28;20110;-74
2024/04/07 02:35:00;;;;;;;0.63;0.40;;;;;;;;;;10231488;28;20047;-74
2024/04/07 02:40:08;;;;;;;3.38;0.50;;;;;;;;;;10238178;28;20047;-74
2024/04/07 02:50:30;;;;;;;0.98;0.50;;;;;;;;;;10227209;28;20728;-74
2024/04/07 02:55:34;;;;;;;1.73;0.60;;;;;;;;;;10228079;28;20058;-74
2024/04/07 03:00:37;;;;;;;2.03;0.70;;;;;;;;;;10226845;28;20048;-75
2024/04/07 03:05:39;;;;;;;0.98;0.50;;;;;;;;;;10232474;28;20059;-74
2024/04/07 03:10:43;;;;;;;2.42;0.80;;;;;;;;;;10215274;29;20089;-73
2024/04/07 03:15:45;;;;;;;2.38;0.63;;;;;;;;;;10227706;28;20572;-74
2024/04/07 03:20:48;;;;;;;3.90;0.63;;;;;;;;;;10231127;29;20421;-74
2024/04/07 03:25:51;;;;;;;0.93;0.45;;;;;;;;;;10220315;29;20066;-74
2024/04/07 03:30:54;;;;;;;1.80;0.70;;;;;;;;;;10236032;28;20063;-73
2024/04/07 03:36:06;;;;;;;1.02;0.50;;;;;;;;;;10237359;28;20051;-73
2024/04/07 03:41:09;;;;;;;1.05;0.60;;;;;;;;;;10232665;28;20050;-74
2024/04/07 03:46:13;;;;;;;3.17;0.80;;;;;;;;;;10224891;29;20051;-74
2024/04/07 03:51:16;;;;;;;2.40;1.02;;;;;;;;;;10194945;23;20113;-73
2024/04/07 03:56:20;;;;;;;6.15;1.60;;;;;;;;;;10072997;29;20528;-73
2024/04/07 04:01:23;;;;;;;6.22;1.77;;;;;;;;;;10042777;29;20064;-73
2024/04/07 04:06:25;;;;;;;6.43;1.48;;;;;;;;;;10042039;29;20081;-72
2024/04/07 04:11:29;;;;;;;2.42;0.80;;;;;;;;;;10043916;29;20053;-72
2024/04/07 04:16:32;;;;;;;3.63;1.15;;;;;;;;;;10044912;29;20418;-73
2024/04/07 04:21:34;;;;;;;4.25;1.23;;;;;;;;;;10073907;29;20065;-72
2024/04/07 04:26:38;;;;;;;2.55;0.70;;;;;;;;;;10043493;29;20057;-72
2024/04/07 04:31:40;;;;;;;1.83;0.70;;;;;;;;;;10040831;29;20046;-72
2024/04/07 04:36:43;;;;;;;2.28;0.80;;;;;;;;;;10043616;29;20560;-72
2024/04/07 04:41:47;;;;;;;5.00;1.10;;;;;;;;;;10051441;29;20140;-71
2024/04/07 04:46:49;;;;;;;2.05;0.90;;;;;;;;;;10027211;29;20580;-72
2024/04/07 04:51:55;;;;;;;3.05;0.73;;;;;;;;;;10044344;29;20486;-72
2024/04/07 04:56:59;;;;;;;1.23;0.50;;;;;;;;;;10043294;29;20057;-72
2024/04/07 05:02:01;;;;;;;1.13;0.50;;;;;;;;;;10052316;29;20053;-72
2024/04/07 05:07:04;;;;;;;2.50;0.47;;;;;;;;;;10048009;29;20050;-72
2024/04/07 05:12:08;;;;;;;2.70;0.70;;;;;;;;;;10041126;29;20059;-72
2024/04/07 05:17:11;;;;;;;2.42;0.40;;;;;;;;;;10050817;29;20053;-72
2024/04/07 05:22:13;;;;;;;1.23;0.55;;;;;;;;;;10040759;29;20097;-72
2024/04/07 05:27:17;;;;;;;5.57;0.60;;;;;;;;;;10048232;29;20045;-72
2024/04/07 05:32:20;;;;;;;1.38;0.50;;;;;;;;;;10033478;29;20113;-72
2024/04/07 05:37:22;;;;;;;4.88;1.42;;;;;;;;;;10050410;29;20109;-72
2024/04/07 05:42:27;;;;;;;2.30;0.70;;;;;;;;;;10043496;29;20046;-72
2024/04/07 05:47:30;;;;;;;2.73;1.23;;;;;;;;;;10041877;29;20101;-72
2024/04/07 05:52:33;;;;;;;4.40;1.08;;;;;;;;;;10043816;29;20058;-72
2024/04/07 05:57:36;;;;;;;2.85;1.00;;;;;;;;;;10041482;29;20059;-72
2024/04/07 06:02:39;;;;;;;3.22;1.40;;;;;;;;;;10045939;29;20049;-73
2024/04/07 06:07:41;;;;;;;3.28;0.95;;;;;;;;;;10046520;29;20790;-73
2024/04/07 06:12:45;;;;;;;5.20;1.70;;;;;;;;;;10046686;29;20736;-72
2024/04/07 06:17:48;;;;;;;2.72;0.88;;;;;;;;;;10036936;29;20050;-73
2024/04/07 06:22:51;;;;;;;6.45;1.00;;;;;;;;;;10053496;29;20145;-73
2024/04/07 06:27:54;;;;;;;3.30;1.30;;;;;;;;;;10043110;29;20581;-73
2024/04/07 06:32:57;;;;;;;2.65;0.95;;;;;;;;;;10032991;29;20057;-73
2024/04/07 06:38:00;;;;;;;2.35;0.80;;;;;;;;;;10034781;29;20117;-73
2024/04/07 06:43:04;;;;;;;2.78;0.80;;;;;;;;;;10042215;29;20062;-73
2024/04/07 06:48:06;;;;;;;1.27;0.70;;;;;;;;;;10043358;29;20057;-73
2024/04/07 06:53:09;;;;;;;2.03;1.10;;;;;;;;;;10055826;29;20087;-73
2024/04/07 06:58:13;;;;;;;4.78;1.17;;;;;;;;;;10042862;29;20060;-73
2024/04/07 07:03:15;;;;;;;1.58;0.55;;;;;;;;;;10042269;29;20056;-73
2024/04/07 07:08:18;;;;;;;2.03;0.65;;;;;;;;;;10045254;29;20509;-73
2024/04/07 07:13:21;;;;;;;1.77;0.57;;;;;;;;;;10047723;29;20037;-73
2024/04/07 07:18:25;;;;;;;3.03;0.50;;;;;;;;;;10041714;29;20061;-73
2024/04/07 07:23:27;;;;;;;1.90;0.93;;;;;;;;;;10049752;29;20045;-73
2024/04/07 07:28:31;;;;;;;1.25;0.50;;;;;;;;;;10043975;29;20058;-73
2024/04/07 07:33:34;;;;;;;1.38;0.45;;;;;;;;;;10031550;29;20045;-73
2024/04/07 07:38:36;;;;;;;0.52;0.43;;;;;;;;;;10031751;29;20050;-73
2024/04/07 07:43:40;;;;;;;1.83;0.60;;;;;;;;;;10042772;29;20058;-73
2024/04/07 07:48:42;;;;;;;5.20;0.73;;;;;;;;;;10027296;29;20462;-73
2024/04/07 07:53:45;;;;;;;2.08;0.50;;;;;;;;;;10041375;29;20049;-73
2024/04/07 07:58:48;;;;;;;2.05;0.70;;;;;;;;;;10047050;29;20056;-73
2024/04/07 08:03:51;;;;;;;1.23;0.40;;;;;;;;;;10041458;29;20049;-73
2024/04/07 08:08:54;;;;;;;2.97;0.68;;;;;;;;;;10023561;29;20068;-73
2024/04/07 08:13:58;;;;;;;2.88;0.52;;;;;;;;;;10049060;29;20052;-73
2024/04/07 08:19:00;;;;;;;1.20;0.65;;;;;;;;;;10043968;29;20061;-73
2024/04/07 08:24:03;;;;;;;1.77;0.60;;;;;;;;;;10044836;29;20092;-73
2024/04/07 08:29:07;;;;;;;1.92;0.50;;;;;;;;;;10044063;29;20053;-73
2024/04/07 08:34:09;;;;;;;2.20;0.70;;;;;;;;;;10046007;29;20063;-73
2024/04/07 08:39:11;;;;;;;5.47;0.90;;;;;;;;;;10050662;29;20041;-73
2024/04/07 08:44:16;;;;;;;2.45;0.68;;;;;;;;;;10048477;29;20571;-73
2024/04/07 08:49:18;;;;;;;3.55;0.90;;;;;;;;;;10027911;29;20062;-74
2024/04/07 08:54:21;;;;;;;3.10;1.10;;;;;;;;;;10039790;29;20053;-73
2024/04/07 08:59:28;;;;;;;3.92;0.68;;;;;;;;;;10047752;29;20186;-73
2024/04/07 09:04:32;;;;;;;2.13;0.60;;;;;;;;;;10049213;29;20086;-73
2024/04/07 09:09:36;;;;;;;2.05;1.00;;;;;;;;;;10045242;29;20114;-73
2024/04/07 09:14:44;;;;;;;4.00;0.90;;;;;;;;;;10036556;29;20070;-73
2024/04/07 09:19:47;;;;;;;6.85;1.38;;;;;;;;;;10039212;29;20053;-74
2024/04/07 09:24:49;;;;;;;3.40;0.50;;;;;;;;;;10030776;29;20085;-73
2024/04/07 09:29:54;;;;;;;2.10;0.50;;;;;;;;;;10043484;29;20054;-73
2024/04/07 09:34:57;;;;;;;1.70;0.70;;;;;;;;;;10044396;29;20057;-74
2024/04/07 09:39:59;;;;;;;2.97;0.85;;;;;;;;;;10048260;29;20049;-73
2024/04/07 09:45:04;;;;;;;2.45;0.70;;;;;;;;;;10050943;29;20041;-74
2024/04/07 09:50:19;;;;;;;1.67;0.60;;;;;;;;;;10047541;29;20581;-74
2024/04/07 09:55:22;;;;;;;1.02;0.60;;;;;;;;;;10167686;23;20052;-73
2024/04/07 10:00:27;;;;;;;2.40;0.70;;;;;;;;;;10121440;29;20056;-73
2024/04/07 10:05:29;;;;;;;0.60;0.40;;;;;;;;;;10124237;29;20059;-73
2024/04/07 10:10:32;;;;;;;3.53;0.80;;;;;;;;;;10102672;29;20412;-73
2024/04/07 10:15:37;;;;;;;1.15;0.40;;;;;;;;;;10157317;29;20436;-74
2024/04/07 10:20:40;;;;;;;3.20;0.50;;;;;;;;;;10138329;29;20056;-73
2024/04/07 10:25:50;;;;;;;1.60;1.02;;;;;;;;;;10152789;29;20052;-73
2024/04/07 10:30:59;;;;;;;1.20;0.50;;;;;;;;;;10146675;29;20120;-73
2024/04/07 10:36:02;;;;;;;1.73;0.40;;;;;;;;;;10156376;29;20465;-74
2024/04/07 10:41:05;;;;;;;1.02;0.50;;;;;;;;;;10173167;29;20056;-73
2024/04/07 10:46:09;;;;;;;1.08;0.55;;;;;;;;;;10158736;29;20044;-73
2024/04/07 10:51:12;;;;;;;1.55;0.60;;;;;;;;;;10159539;29;20050;-73
2024/04/07 10:56:14;;;;;;;1.13;0.40;;;;;;;;;;10158733;29;20427;-73
2024/04/07 11:01:18;;;;;;;1.08;0.52;;;;;;;;;;10141576;29;20514;-73
2024/04/07 11:06:23;;;;;;;0.60;0.40;;;;;;;;;;10163915;29;20052;-73
2024/04/07 11:11:25;;;;;;;3.53;0.80;;;;;;;;;;10142127;29;20056;-73
2024/04/07 11:16:36;;;;;;;1.98;0.55;;;;;;;;;;10150573;29;20123;-74
2024/04/07 11:21:38;;;;;;;2.60;1.10;;;;;;;;;;10157405;29;20504;-74
2024/04/07 11:26:41;;;;;;;2.08;0.85;;;;;;;;;;10143643;29;20052;-74
2024/04/07 11:31:52;;;;;;;2.83;1.13;;;;;;;;;;10158385;29;20355;-73
2024/04/07 11:36:55;;;;;;;2.67;0.68;;;;;;;;;;10155646;28;20427;-74
2024/04/07 11:41:57;;;;;;;3.20;0.90;;;;;;;;;;10144269;29;20048;-73
2024/04/07 11:47:02;;;;;;;1.90;0.60;;;;;;;;;;10157084;29;20056;-74
2024/04/07 11:52:04;;;;;;;2.73;0.70;;;;;;;;;;10157871;29;20060;-74
2024/04/07 11:57:07;;;;;;;1.40;0.60;;;;;;;;;;10159512;29;20052;-74
2024/04/07 12:02:10;;;;;;;1.02;0.52;;;;;;;;;;10157339;29;20052;-73
2024/04/07 12:07:13;;;;;;;2.72;0.98;;;;;;;;;;10142073;29;20048;-74
2024/04/07 12:12:16;;;;;;;5.28;0.90;;;;;;;;;;10157221;29;20048;-74
2024/04/07 12:17:20;;;;;;;3.55;0.85;;;;;;;;;;10154561;29;20064;-74
2024/04/07 12:22:23;;;;;;;2.92;0.68;;;;;;;;;;10142487;29;20052;-74
2024/04/07 12:27:25;;;;;;;1.67;0.63;;;;;;;;;;10155558;29;20054;-74
2024/04/07 12:32:29;;;;;;;2.78;0.77;;;;;;;;;;10157770;29;20051;-74
2024/04/07 12:37:31;;;;;;;3.28;0.60;;;;;;;;;;10152268;29;20056;-74
2024/04/07 12:42:34;;;;;;;0.85;0.40;;;;;;;;;;10151210;29;20056;-74
2024/04/07 12:47:38;;;;;;;2.83;0.63;;;;;;;;;;10159686;29;20059;-73
2024/04/07 12:52:41;;;;;;;3.20;1.00;;;;;;;;;;10147579;29;20396;-73
2024/04/07 12:57:43;;;;;;;1.40;0.50;;;;;;;;;;10156914;29;20518;-73
2024/04/07 13:02:47;;;;;;;2.10;0.60;;;;;;;;;;10150936;29;20120;-74
2024/04/07 13:07:49;;;;;;;1.38;0.70;;;;;;;;;;10163572;29;20056;-73
2024/04/07 13:12:52;;;;;;;4.00;0.63;;;;;;;;;;10145801;29;20052;-74
2024/04/07 13:17:57;;;;;;;1.25;0.55;;;;;;;;;;10138900;29;20072;-73
2024/04/07 13:22:59;;;;;;;3.47;0.97;;;;;;;;;;10126310;29;20377;-73
2024/04/07 13:28:03;;;;;;;2.08;0.75;;;;;;;;;;10148955;29;20085;-74
2024/04/07 13:33:07;;;;;;;1.27;0.70;;;;;;;;;;10173496;28;20063;-73
2024/04/07 13:38:10;;;;;;;2.22;0.80;;;;;;;;;;10152506;28;20644;-74
2024/04/07 13:43:12;;;;;;;3.67;0.95;;;;;;;;;;10150801;29;20195;-73
2024/04/07 13:48:16;;;;;;;3.70;0.77;;;;;;;;;;10154081;28;20525;-73
2024/04/07 13:53:18;;;;;;;1.90;0.70;;;;;;;;;;10164810;28;20102;-73
2024/04/07 13:58:20;;;;;;;2.80;0.80;;;;;;;;;;10164941;28;20503;-73
2024/04/07 14:03:24;;;;;;;5.47;0.88;;;;;;;;;;10164367;29;20059;-73
2024/04/07 14:08:26;;;;;;;2.25;0.70;;;;;;;;;;10161207;28;20063;-73
2024/04/07 14:13:28;;;;;;;2.13;0.93;;;;;;;;;;10163609;29;20139;-74
2024/04/07 14:18:32;;;;;;;3.40;0.80;;;;;;;;;;10140617;29;20053;-74
2024/04/07 14:23:34;;;;;;;2.63;1.00;;;;;;;;;;10145170;29;20546;-73
2024/04/07 14:28:37;;;;;;;2.17;0.60;;;;;;;;;;10158996;28;20515;-74
2024/04/07 14:33:40;;;;;;;1.77;0.70;;;;;;;;;;10169750;28;20051;-73
2024/04/07 14:38:43;;;;;;;4.43;1.00;;;;;;;;;;10166233;29;20055;-74
2024/04/07 14:43:45;;;;;;;4.30;0.90;;;;;;;;;;10166374;29;20052;-73
2024/04/07 14:48:49;;;;;;;3.40;1.02;;;;;;;;;;10165661;29;20067;-74
2024/04/07 14:53:52;;;;;;;2.60;0.80;;;;;;;;;;10160676;29;20072;-74
2024/04/07 14:58:55;;;;;;;3.65;0.80;;;;;;;;;;10163145;29;20056;-74
2024/04/07 15:03:59;;;;;;;4.07;0.90;;;;;;;;;;10162131;28;20055;-73
2024/04/07 15:09:02;;;;;;;1.85;0.75;;;;;;;;;;10163920;28;20052;-73
2024/04/07 15:14:04;;;;;;;5.38;0.85;;;;;;;;;;10165632;28;20055;-73
2024/04/07 15:19:08;;;;;;;3.15;0.80;;;;;;;;;;10141847;29;20063;-73
2024/04/07 15:24:11;;;;;;;3.25;0.63;;;;;;;;;;10159706;29;20056;-73
2024/04/07 15:29:14;;;;;;;4.65;0.80;;;;;;;;;;10139475;29;20048;-73
2024/04/07 15:34:17;;;;;;;3.88;1.15;;;;;;;;;;10147911;29;20052;-74
2024/04/07 15:39:20;;;;;;;1.30;0.52;;;;;;;;;;10156554;29;20060;-73
2024/04/07 15:44:22;;;;;;;3.72;0.80;;;;;;;;;;10139596;29;20043;-73
2024/04/07 15:49:27;;;;;;;2.63;0.90;;;;;;;;;;10160949;29;20584;-73
2024/04/07 15:54:30;;;;;;;3.38;0.70;;;;;;;;;;10160278;29;20056;-73
2024/04/07 15:59:32;;;;;;;2.60;0.98;;;;;;;;;;10152132;29;20431;-73
2024/04/07 16:04:36;;;;;;;1.92;0.50;;;;;;;;;;10138639;29;20044;-73
2024/04/07 16:09:38;;;;;;;1.52;0.63;;;;;;;;;;10153463;29;20051;-73
2024/04/07 16:14:41;;;;;;;1.00;0.43;;;;;;;;;;10155303;29;20047;-73
2024/04/07 16:19:45;;;;;;;3.10;0.85;;;;;;;;;;10154362;29;20048;-73
2024/04/07 16:24:49;;;;;;;3.20;1.00;;;;;;;;;;10153515;29;20055;-74
2024/04/07 16:29:52;;;;;;;5.07;1.15;;;;;;;;;;10161836;29;20040;-73
2024/04/07 16:34:56;;;;;;;6.75;0.65;;;;;;;;;;10161019;29;20044;-73
2024/04/07 16:39:58;;;;;;;2.08;0.85;;;;;;;;;;10164644;29;20068;-73
2024/04/07 16:45:01;;;;;;;3.15;0.90;;;;;;;;;;10164774;29;20118;-73
2024/04/07 16:50:06;;;;;;;1.75;0.75;;;;;;;;;;10161556;29;20427;-73
2024/04/07 16:55:08;;;;;;;2.67;0.80;;;;;;;;;;10158103;29;20459;-73
2024/04/07 17:00:12;;;;;;;0.73;0.52;;;;;;;;;;10165939;29;20519;-73
2024/04/07 17:05:17;;;;;;;1.98;0.47;;;;;;;;;;10169154;29;20054;-73
2024/04/07 17:10:19;;;;;;;1.77;0.80;;;;;;;;;;10164401;29;20040;-73
2024/04/07 17:15:22;;;;;;;1.83;0.77;;;;;;;;;;10169653;29;20705;-73
2024/04/07 17:20:26;;;;;;;2.92;0.50;;;;;;;;;;10173807;29;20529;-73
2024/04/07 17:25:28;;;;;;;0.95;0.60;;;;;;;;;;10168790;29;20521;-73
2024/04/07 17:30:31;;;;;;;2.25;0.68;;;;;;;;;;10163043;29;20063;-73
2024/04/07 17:35:36;;;;;;;4.75;0.60;;;;;;;;;;10155558;29;20044;-73
2024/04/07 17:40:39;;;;;;;1.48;0.60;;;;;;;;;;10156567;29;20460;-73
2024/04/07 17:45:42;;;;;;;3.00;0.80;;;;;;;;;;10161580;29;20047;-73
2024/04/07 17:50:47;;;;;;;4.05;0.93;;;;;;;;;;10161847;29;20092;-73
2024/04/07 17:55:49;;;;;;;1.95;0.80;;;;;;;;;;10160448;29;20044;-73
2024/04/07 18:00:52;;;;;;;2.25;0.90;;;;;;;;;;10135526;29;20072;-73
2024/04/07 18:05:55;;;;;;;2.30;0.90;;;;;;;;;;10158001;29;20062;-73
2024/04/07 18:10:58;;;;;;;1.17;0.70;;;;;;;;;;10155541;29;20048;-74
2024/04/07 18:16:01;;;;;;;2.22;0.80;;;;;;;;;;10146231;29;20048;-74
2024/04/07 18:21:05;;;;;;;2.55;0.98;;;;;;;;;;10156610;29;20707;-74
2024/04/07 18:26:08;;;;;;;1.90;0.60;;;;;;;;;;10156392;29;20044;-74
2024/04/07 18:31:10;;;;;;;1.65;0.73;;;;;;;;;;10153833;29;20044;-74
2024/04/07 18:36:14;;;;;;;3.53;0.70;;;;;;;;;;10157882;29;20046;-74
2024/04/07 18:41:17;;;;;;;1.92;0.80;;;;;;;;;;10162856;28;20139;-74
2024/04/07 18:46:21;;;;;;;1.35;0.70;;;;;;;;;;10164683;29;20504;-74
2024/04/07 18:51:25;;;;;;;1.90;0.80;;;;;;;;;;10158340;28;20052;-74
2024/04/07 18:56:29;;;;;;;2.45;0.70;;;;;;;;;;10171556;29;20060;-74
2024/04/07 19:01:31;;;;;;;2.28;0.68;;;;;;;;;;10149018;29;20112;-73
2024/04/07 19:06:36;;;;;;;2.58;0.68;;;;;;;;;;10152436;28;20052;-74
2024/04/07 19:11:39;;;;;;;1.17;0.63;;;;;;;;;;10134416;29;20055;-74
2024/04/07 19:16:41;;;;;;;1.88;0.70;;;;;;;;;;10149231;29;20048;-74
2024/04/07 19:21:45;;;;;;;2.78;0.90;;;;;;;;;;10136298;28;20054;-74
2024/04/07 19:26:47;;;;;;;3.75;0.77;;;;;;;;;;10140446;29;20191;-74
2024/04/07 19:31:51;;;;;;;2.17;0.90;;;;;;;;;;10160874;28;20506;-74
2024/04/07 19:36:55;;;;;;;5.72;1.15;;;;;;;;;;10160089;29;20048;-74
2024/04/07 19:41:58;;;;;;;1.13;0.77;;;;;;;;;;10153702;28;20067;-74
2024/04/07 19:47:00;;;;;;;2.97;0.63;;;;;;;;;;10173060;29;20052;-74
2024/04/07 19:52:04;;;;;;;2.95;0.85;;;;;;;;;;10160156;29;20049;-74
2024/04/07 19:57:07;;;;;;;2.45;0.80;;;;;;;;;;10155218;28;20053;-74
2024/04/07 20:02:11;;;;;;;2.00;1.00;;;;;;;;;;10153544;29;20604;-74
2024/04/07 20:07:14;;;;;;;2.78;1.23;;;;;;;;;;10137063;29;20040;-74
2024/04/07 20:12:17;;;;;;;2.90;1.05;;;;;;;;;;10158495;28;20037;-74
2024/04/07 20:17:19;;;;;;;3.20;0.90;;;;;;;;;;10170156;29;20052;-74
2024/04/07 20:22:23;;;;;;;2.38;0.88;;;;;;;;;;10165932;29;20044;-74
2024/04/07 20:27:25;;;;;;;1.70;0.90;;;;;;;;;;10166185;29;20063;-74
2024/04/07 20:32:28;;;;;;;2.08;0.75;;;;;;;;;;10171793;29;20048;-74
2024/04/07 20:37:31;;;;;;;3.67;0.75;;;;;;;;;;10176707;29;20040;-74
2024/04/07 20:42:34;;;;;;;2.33;0.68;;;;;;;;;;10166639;29;20052;-74
2024/04/07 20:47:36;;;;;;;1.65;0.80;;;;;;;;;;10150023;28;20395;-74
2024/04/07 20:52:41;;;;;;;1.95;0.85;;;;;;;;;;10148318;29;20052;-74
2024/04/07 20:57:43;;;;;;;3.67;0.57;;;;;;;;;;10166303;29;20569;-74
2024/04/07 21:02:46;;;;;;;2.45;0.55;;;;;;;;;;10170947;29;20075;-74
2024/04/07 21:07:49;;;;;;;2.47;0.68;;;;;;;;;;10168141;29;20048;-74
2024/04/07 21:12:52;;;;;;;1.38;0.63;;;;;;;;;;10169403;29;20060;-74
2024/04/07 21:17:54;;;;;;;2.45;0.82;;;;;;;;;;10167937;29;20047;-73
2024/04/07 21:23:00;;;;;;;2.65;0.95;;;;;;;;;;10169384;29;20071;-73
2024/04/07 21:28:02;;;;;;;3.15;1.00;;;;;;;;;;10167476;29;20712;-73
2024/04/07 21:33:05;;;;;;;2.63;0.70;;;;;;;;;;10171054;29;20054;-73
2024/04/07 21:38:08;;;;;;;5.38;1.08;;;;;;;;;;10165706;29;20044;-73
2024/04/07 21:43:11;;;;;;;3.55;0.65;;;;;;;;;;10165476;29;20130;-73
2024/04/07 21:48:13;;;;;;;2.28;0.75;;;;;;;;;;10158361;29;20047;-73
2024/04/07 21:53:17;;;;;;;2.95;1.05;;;;;;;;;;10166592;29;20635;-73
2024/04/07 21:58:20;;;;;;;2.55;0.98;;;;;;;;;;10286700;23;20047;-76
2024/04/07 22:03:22;;;;;;;1.00;0.60;;;;;;;;;;10231291;28;20063;-76
2024/04/07 22:08:26;;;;;;;2.50;0.70;;;;;;;;;;10215535;28;20473;-76
2024/04/07 22:13:29;;;;;;;2.40;0.80;;;;;;;;;;10230790;28;20078;-75
2024/04/07 22:18:35;;;;;;;4.95;0.80;;;;;;;;;;10220857;28;20043;-75
2024/04/07 22:23:39;;;;;;;2.03;0.75;;;;;;;;;;10226699;28;20142;-75
2024/04/07 22:28:42;;;;;;;2.90;0.80;;;;;;;;;;10227741;28;20459;-75
2024/04/07 22:33:46;;;;;;;1.83;0.80;;;;;;;;;;10208520;28;20056;-75
2024/04/07 22:38:49;;;;;;;1.55;0.90;;;;;;;;;;10186841;29;20134;-75
2024/04/07 22:43:52;;;;;;;3.17;1.20;;;;;;;;;;10177808;28;20060;-75
2024/04/07 22:48:54;;;;;;;1.85;1.02;;;;;;;;;;10207395;28;20055;-75
2024/04/07 22:53:58;;;;;;;2.10;1.10;;;;;;;;;;10205545;28;20121;-74
2024/04/07 22:59:00;;;;;;;1.92;0.93;;;;;;;;;;10230448;28;20049;-75
2024/04/07 23:04:03;;;;;;;3.50;0.70;;;;;;;;;;10230912;28;20058;-75
2024/04/07 23:09:07;;;;;;;1.52;0.88;;;;;;;;;;10228599;28;20045;-74
2024/04/07 23:14:10;;;;;;;2.50;0.90;;;;;;;;;;10214068;28;20043;-75
2024/04/07 23:19:16;;;;;;;2.73;1.03;;;;;;;;;;10227746;29;20043;-75
2024/04/07 23:24:20;;;;;;;2.80;0.90;;;;;;;;;;10233676;29;20485;-75
2024/04/07 23:29:23;;;;;;;2.75;0.70;;;;;;;;;;10224590;29;20043;-74
2024/04/07 23:34:27;;;;;;;4.88;1.10;;;;;;;;;;10212430;29;20055;-74
2024/04/07 23:39:32;;;;;;;2.67;1.05;;;;;;;;;;10214082;29;20044;-75
2024/04/07 23:44:35;;;;;;;3.50;1.50;;;;;;;;;;10226880;28;20134;-75
2024/04/07 23:49:37;;;;;;;4.57;1.23;;;;;;;;;;10232634;29;20467;-75
2024/04/07 23:54:41;;;;;;;2.55;0.90;;;;;;;;;;10222697;29;20474;-75
2024/04/07 23:59:43;;;;;;;1.42;0.80;;;;;;;;;;10221918;29;20067;-75
